Terminal Aerodrome Forecast
Issued by NWS

Home | Current Version | Previous Version | Text Only | Print | Product List | Glossary Off
Versions: 1 2 3 4 5 6 7 8 9 10 11 12 13 14 15 16 17 18 19 20 21 22 23 24

000
FTUS43 KABR 271739
TAFATY
TAF
KATY 271739Z 2718/2818 15016KT P6SM SCT020
     FM272000 15016G21KT P6SM SCT030
     FM280100 16016G26KT P6SM SCT100
      TEMPO 2808/2812 P6SM TS BKN050CB
     FM281200 22016G25KT P6SM SCT050
     FM281500 29017G26KT P6SM SKC=

USA.gov is the U.S. government's official web portal to all federal, state and local government web resources and services.